Time;durP1;ratioP1;P1;durP2;ratioP2;P2;SDS_P1;SDS_P2;PMS_P1;PMS_P2;Temp;Humidity;BMP_temperature;BMP_pressure;BME280_temperature;BME280_humidity;BME280_pressure;Samples;Min_cycle;Max_cycle;Signal;HPM_P1;HPM_P2
2023/01/25 00:01:57;;;;;;;3.40;2.47;;;;;;;20.53;24.63;100545.56;5067351;28;20492;-59
2023/01/25 00:04:23;;;;;;;3.97;2.70;;;;;;;20.53;24.74;100542.78;5085031;28;20031;-59
2023/01/25 00:06:49;;;;;;;3.40;2.50;;;;;;;20.53;24.53;100530.84;5068805;28;20028;-56
2023/01/25 00:09:15;;;;;;;3.13;2.42;;;;;;;20.52;24.74;100532.81;5059817;28;20376;-59
2023/01/25 00:11:41;;;;;;;3.75;3.13;;;;;;;20.52;24.79;100526.47;5066926;28;20396;-56
2023/01/25 00:14:10;;;;;;;3.83;2.60;;;;;;;20.51;24.81;100527.63;5073984;28;20403;-59
2023/01/25 00:16:36;;;;;;;3.70;2.70;;;;;;;20.52;24.61;100529.25;5071132;28;20020;-59
2023/01/25 00:19:02;;;;;;;3.30;2.35;;;;;;;20.52;24.86;100526.47;5057573;28;20071;-60
2023/01/25 00:21:27;;;;;;;3.60;2.30;;;;;;;20.51;24.83;100531.22;5076803;28;20074;-56
2023/01/25 00:23:53;;;;;;;3.63;2.78;;;;;;;20.50;24.70;100517.63;5064072;28;20191;-56
2023/01/25 00:26:19;;;;;;;3.42;2.47;;;;;;;20.49;24.63;100521.56;5055833;28;20032;-59
2023/01/25 00:28:53;;;;;;;3.00;2.20;;;;;;;20.48;24.79;100517.19;5065523;28;20082;-60
2023/01/25 00:31:32;;;;;;;3.28;2.63;;;;;;;20.47;24.69;100510.81;5068086;28;20033;-60
2023/01/25 00:34:24;;;;;;;3.40;2.50;;;;;;;20.48;24.56;100512.44;5063950;28;20036;-59
2023/01/25 00:36:55;;;;;;;3.42;2.42;;;;;;;20.48;24.67;100509.66;5055427;28;20047;-59
2023/01/25 00:39:21;;;;;;;3.10;2.28;;;;;;;20.47;24.77;100516.38;5091317;28;20059;-60
2023/01/25 00:41:47;;;;;;;3.40;2.70;;;;;;;20.47;24.73;100507.22;5089356;28;20027;-59
2023/01/25 00:44:13;;;;;;;3.72;2.63;;;;;;;20.46;24.53;100509.19;5076171;28;20020;-56
2023/01/25 00:46:38;;;;;;;3.55;2.60;;;;;;;20.45;24.69;100504.78;5089887;28;20020;-60
2023/01/25 00:49:04;;;;;;;3.05;2.47;;;;;;;20.45;24.72;100504.00;5090023;28;20069;-60
2023/01/25 00:51:29;;;;;;;3.30;2.60;;;;;;;20.44;24.56;100500.41;5088787;28;20043;-56
2023/01/25 00:53:55;;;;;;;3.83;2.70;;;;;;;20.45;24.56;100498.44;5087561;28;20401;-59
2023/01/25 00:56:20;;;;;;;3.65;2.40;;;;;;;20.45;24.74;100498.44;5088464;28;20028;-56
2023/01/25 00:58:46;;;;;;;3.67;2.80;;;;;;;20.45;24.85;100498.44;5086988;28;20025;-56
2023/01/25 01:01:12;;;;;;;3.22;2.45;;;;;;;20.45;24.57;100501.22;5089266;28;20035;-56
2023/01/25 01:03:38;;;;;;;3.78;2.88;;;;;;;20.42;24.76;100501.84;5083079;28;20028;-56
2023/01/25 01:06:07;;;;;;;3.58;2.63;;;;;;;20.42;24.67;100505.44;5096848;28;20113;-60
2023/01/25 01:08:35;;;;;;;4.25;2.92;;;;;;;20.43;24.70;100495.13;5093597;28;20491;-56
2023/01/25 01:11:03;;;;;;;3.75;2.90;;;;;;;20.42;24.53;100507.41;5095009;28;20036;-56
2023/01/25 01:13:29;;;;;;;3.72;2.75;;;;;;;20.42;24.69;100513.78;5093154;28;20058;-59
2023/01/25 01:15:55;;;;;;;3.50;2.30;;;;;;;20.41;24.71;100503.81;5080744;28;20111;-56
2023/01/25 01:18:21;;;;;;;3.17;2.45;;;;;;;20.42;24.62;100515.75;5091983;28;20122;-58
2023/01/25 01:20:50;;;;;;;3.92;2.95;;;;;;;20.40;24.64;100509.72;5092964;28;20039;-56
2023/01/25 01:23:15;;;;;;;3.47;2.53;;;;;;;20.40;24.72;100507.75;5094001;28;20020;-56
2023/01/25 01:25:41;;;;;;;3.28;2.40;;;;;;;20.40;24.82;100507.75;5088767;28;20031;-60
2023/01/25 01:28:06;;;;;;;3.78;2.85;;;;;;;20.41;24.70;100511.34;5089123;28;20384;-60
2023/01/25 01:30:32;;;;;;;3.40;2.60;;;;;;;20.39;24.73;100511.69;5082375;28;20020;-56
2023/01/25 01:32:57;;;;;;;3.45;2.67;;;;;;;20.39;24.59;100508.91;5092965;28;20063;-59
2023/01/25 01:35:23;;;;;;;3.80;2.90;;;;;;;20.40;24.74;100502.19;5084344;28;20032;-60
2023/01/25 01:37:48;;;;;;;3.58;2.65;;;;;;;20.39;24.59;100506.13;5092190;28;20059;-56
2023/01/25 01:40:14;;;;;;;3.70;2.70;;;;;;;20.38;24.69;100501.75;5093092;28;20215;-56
2023/01/25 01:43:05;;;;;;;3.65;2.75;;;;;;;20.37;24.69;100496.53;5083918;28;20028;-59
2023/01/25 01:45:55;;;;;;;3.78;2.55;;;;;;;20.38;24.74;100503.72;5084262;28;20027;-56
2023/01/25 01:48:46;;;;;;;3.70;2.70;;;;;;;20.38;24.65;100495.38;5075799;28;20028;-56
2023/01/25 01:51:43;;;;;;;4.07;2.97;;;;;;;20.36;24.64;100490.16;5085598;28;20030;-56
2023/01/25 01:54:31;;;;;;;4.00;2.95;;;;;;;20.38;24.75;100498.97;5064602;28;20031;-60
2023/01/25 01:57:05;;;;;;;3.50;2.80;;;;;;;20.38;24.72;100490.63;5077750;28;20085;-56
2023/01/25 01:59:38;;;;;;;3.83;2.80;;;;;;;20.37;24.55;100493.75;5079379;28;20024;-59
2023/01/25 02:02:04;;;;;;;3.80;2.70;;;;;;;20.37;24.73;100496.53;5088866;28;20036;-59
2023/01/25 02:04:31;;;;;;;4.13;3.05;;;;;;;20.37;24.58;100499.31;5089280;28;20028;-56
2023/01/25 02:07:22;;;;;;;3.72;2.78;;;;;;;20.35;24.63;100499.63;5086562;28;20028;-59
2023/01/25 02:09:50;;;;;;;4.30;3.08;;;;;;;20.35;24.60;100494.88;5071760;28;20035;-56
2023/01/25 02:12:17;;;;;;;3.58;2.75;;;;;;;20.34;24.61;100490.50;5080847;28;20103;-56
2023/01/25 02:14:50;;;;;;;3.83;2.75;;;;;;;20.34;24.77;100493.28;5086841;28;20088;-56
2023/01/25 02:17:26;;;;;;;;;;;;;;;20.40;24.54;100484.72;5091156;28;20024;-60
2023/01/25 02:19:59;;;;;;;3.65;2.65;;;;;;;20.36;24.78;100484.63;5079181;28;19912;-59
2023/01/25 02:22:36;;;;;;;3.85;2.80;;;;;;;20.34;24.64;100486.91;5086883;28;20097;-59
2023/01/25 02:25:07;;;;;;;3.38;2.60;;;;;;;20.33;24.78;100486.09;5093847;28;20032;-60
2023/01/25 02:27:37;;;;;;;4.25;3.08;;;;;;;20.31;24.65;100480.09;5097042;28;20365;-60
2023/01/25 02:30:04;;;;;;;3.30;2.60;;;;;;;20.32;24.71;100478.91;5081672;28;20051;-56
2023/01/25 02:32:31;;;;;;;4.18;3.10;;;;;;;20.31;24.84;100465.38;5091051;28;20418;-59
2023/01/25 02:34:56;;;;;;;3.60;2.65;;;;;;;20.31;24.53;100466.19;5100067;28;20080;-59
2023/01/25 02:37:22;;;;;;;3.78;2.70;;;;;;;20.30;24.83;100470.13;5086148;28;20044;-60
2023/01/25 02:39:48;;;;;;;3.95;2.90;;;;;;;20.31;24.61;100463.41;5088231;28;20048;-56
2023/01/25 02:42:13;;;;;;;4.13;2.80;;;;;;;20.31;24.48;100466.19;5092419;28;20073;-60
2023/01/25 02:44:40;;;;;;;3.40;2.70;;;;;;;20.32;24.82;100473.38;5070985;28;20471;-56
2023/01/25 02:47:06;;;;;;;4.10;2.97;;;;;;;20.31;24.63;100468.97;5078804;28;20046;-60
2023/01/25 02:49:35;;;;;;;3.63;3.00;;;;;;;20.29;24.77;100468.50;5092574;28;20395;-56
2023/01/25 02:52:01;;;;;;;3.00;2.25;;;;;;;20.30;24.81;100466.53;5087872;28;20401;-59
2023/01/25 02:54:27;;;;;;;3.88;2.97;;;;;;;20.29;24.78;100471.28;5090990;28;20029;-56
2023/01/25 02:56:52;;;;;;;4.05;3.03;;;;;;;20.30;24.71;100467.34;5091718;28;20020;-59
2023/01/25 02:59:18;;;;;;;3.80;2.70;;;;;;;20.29;24.90;100462.97;5080789;28;20044;-59
2023/01/25 03:01:44;;;;;;;4.50;3.00;;;;;;;20.30;24.72;100459.03;5089389;28;20396;-59
2023/01/25 03:04:10;;;;;;;3.28;2.45;;;;;;;20.29;24.62;100457.41;5091418;28;20103;-60
2023/01/25 03:06:37;;;;;;;4.78;3.05;;;;;;;20.28;24.86;100458.53;5089445;28;20095;-56
2023/01/25 03:09:04;;;;;;;3.70;2.70;;;;;;;20.28;24.73;100466.88;5095380;28;20532;-56
2023/01/25 03:11:30;;;;;;;4.18;2.72;;;;;;;20.29;24.63;100462.16;5096688;28;20474;-60
2023/01/25 03:13:55;;;;;;;3.10;2.40;;;;;;;20.28;24.80;100461.31;5088501;28;20032;-56
2023/01/25 03:16:21;;;;;;;4.05;3.08;;;;;;;20.28;24.73;100458.53;5085700;28;20024;-59
2023/01/25 03:18:46;;;;;;;3.90;2.97;;;;;;;20.27;24.67;100451.34;5077455;28;20028;-60
2023/01/25 03:21:16;;;;;;;3.60;2.67;;;;;;;20.27;24.78;100453.31;5079179;28;20104;-59
2023/01/25 03:23:43;;;;;;;3.63;2.70;;;;;;;20.28;24.68;100454.94;5088759;28;20030;-56
2023/01/25 03:26:14;;;;;;;3.65;2.80;;;;;;;20.25;24.73;100442.56;5091840;28;20031;-56
2023/01/25 03:28:41;;;;;;;3.70;2.70;;;;;;;20.27;24.61;100445.81;5090252;28;20482;-59
2023/01/25 03:31:09;;;;;;;4.28;2.90;;;;;;;20.26;24.70;100440.59;5081116;28;20032;-59
2023/01/25 03:33:34;;;;;;;3.90;2.70;;;;;;;20.26;24.62;100446.97;5087068;28;20025;-59
2023/01/25 03:36:00;;;;;;;3.50;2.63;;;;;;;20.26;24.72;100443.38;5074695;28;20149;-56
2023/01/25 03:38:26;;;;;;;3.80;2.83;;;;;;;20.25;24.66;100430.66;5073745;28;20133;-59
2023/01/25 03:40:52;;;;;;;4.05;2.90;;;;;;;20.26;24.76;100437.81;5093521;28;20035;-59
2023/01/25 03:43:18;;;;;;;3.80;2.88;;;;;;;20.25;24.69;100437.00;5084570;28;20024;-56
2023/01/25 03:45:44;;;;;;;3.70;2.67;;;;;;;20.25;24.64;100437.00;5073679;28;20044;-59
2023/01/25 03:48:09;;;;;;;3.60;2.83;;;;;;;20.26;24.63;100435.84;5086789;28;20400;-60
2023/01/25 03:50:35;;;;;;;3.53;2.42;;;;;;;20.25;24.83;100439.78;5088877;28;20437;-59
2023/01/25 03:53:08;;;;;;;3.65;2.75;;;;;;;20.25;24.74;100431.47;5083197;28;20150;-59
2023/01/25 03:55:34;;;;;;;3.72;2.90;;;;;;;20.26;24.76;100429.47;5080492;28;20024;-59
2023/01/25 03:57:59;;;;;;;4.13;3.00;;;;;;;20.25;24.62;100423.13;5075932;28;20036;-59
2023/01/25 04:00:25;;;;;;;3.85;2.78;;;;;;;20.25;24.55;100430.66;5072984;28;20024;-59
2023/01/25 04:02:50;;;;;;;3.50;2.78;;;;;;;20.25;24.75;100431.47;5080323;28;20097;-59
2023/01/25 04:05:16;;;;;;;3.45;2.60;;;;;;;20.24;24.78;100429.84;5089028;28;20039;-59
2023/01/25 04:07:42;;;;;;;3.50;2.65;;;;;;;20.25;24.68;100428.69;5080882;28;20214;-60
2023/01/25 04:10:08;;;;;;;3.65;2.75;;;;;;;20.23;24.67;100414.31;5088119;28;20028;-56
2023/01/25 04:12:33;;;;;;;3.97;2.80;;;;;;;20.25;24.82;100411.19;5095209;28;20136;-56
2023/01/25 04:14:59;;;;;;;4.22;2.83;;;;;;;20.24;24.77;100406.81;5096171;28;20497;-56
2023/01/25 04:17:24;;;;;;;4.20;2.78;;;;;;;20.24;24.83;100404.03;5090817;28;20038;-59
2023/01/25 04:19:50;;;;;;;3.40;2.42;;;;;;;20.24;24.94;100401.25;5087930;28;20036;-56
2023/01/25 04:22:15;;;;;;;3.90;2.75;;;;;;;20.24;24.94;100398.47;5083757;28;20090;-59
2023/01/25 04:24:41;;;;;;;3.53;2.63;;;;;;;20.22;24.73;100390.50;5102471;28;20028;-56
2023/01/25 04:27:07;;;;;;;3.40;2.63;;;;;;;20.24;24.87;100401.25;5083427;28;20030;-60
2023/01/25 04:29:33;;;;;;;3.95;2.80;;;;;;;20.24;24.88;100402.06;5085246;28;20128;-56
2023/01/25 04:31:59;;;;;;;4.05;2.78;;;;;;;20.22;24.72;100409.94;5081118;28;20064;-59
2023/01/25 04:34:25;;;;;;;3.70;2.60;;;;;;;20.24;24.78;100399.28;5079204;28;20068;-59
2023/01/25 04:36:50;;;;;;;3.83;2.92;;;;;;;20.23;24.82;100397.66;5092421;28;20024;-56
2023/01/25 04:39:16;;;;;;;3.58;2.80;;;;;;;20.23;24.97;100394.88;5082095;28;20055;-60
2023/01/25 04:41:41;;;;;;;4.22;2.97;;;;;;;20.22;24.86;100393.28;5091791;28;20032;-56
2023/01/25 04:44:07;;;;;;;3.55;2.65;;;;;;;20.23;24.73;100388.53;5090052;28;20100;-60
2023/01/25 04:46:32;;;;;;;3.97;2.90;;;;;;;20.23;24.96;100380.19;5076916;28;20032;-56
2023/01/25 04:48:58;;;;;;;3.38;2.42;;;;;;;20.22;24.84;100381.34;5083177;28;20458;-56
2023/01/25 04:51:23;;;;;;;3.92;2.75;;;;;;;20.23;24.75;100385.75;5085416;28;20028;-59
2023/01/25 04:53:49;;;;;;;3.53;2.60;;;;;;;20.22;25.00;100375.78;5087984;28;20055;-56
2023/01/25 04:56:14;;;;;;;3.13;2.30;;;;;;;20.21;24.88;100377.72;5076329;28;20036;-59
2023/01/25 04:58:40;;;;;;;3.47;2.58;;;;;;;20.21;24.80;100383.28;5090192;28;20035;-56
2023/01/25 05:01:06;;;;;;;3.38;2.35;;;;;;;20.22;24.84;100379.38;5077989;28;20054;-56
2023/01/25 05:03:32;;;;;;;4.05;3.00;;;;;;;20.21;24.83;100382.47;5077141;28;20024;-59
2023/01/25 05:05:57;;;;;;;3.83;2.83;;;;;;;20.21;25.08;100388.84;5086562;28;20439;-56
2023/01/25 05:08:24;;;;;;;3.70;2.78;;;;;;;20.21;25.01;100394.41;5078135;28;20074;-60
2023/01/25 05:10:50;;;;;;;3.50;2.83;;;;;;;20.20;24.88;100387.22;5094763;28;20032;-56
2023/01/25 05:13:15;;;;;;;3.10;2.22;;;;;;;20.22;25.05;100401.59;5088590;28;20446;-60
2023/01/25 05:15:41;;;;;;;3.90;3.03;;;;;;;20.20;24.94;100384.44;5083163;28;20031;-56
2023/01/25 05:18:06;;;;;;;3.63;2.60;;;;;;;20.20;25.06;100386.41;5084842;28;20027;-56
2023/01/25 05:20:32;;;;;;;3.90;3.00;;;;;;;20.20;25.08;100390.00;5073009;28;20448;-56
2023/01/25 05:22:57;;;;;;;3.35;2.53;;;;;;;20.20;24.97;100392.78;5078311;28;20021;-56
2023/01/25 05:28:08;;;;;;;3.63;2.67;;;;;;;20.20;25.06;100383.63;5048294;28;20041;-56
2023/01/25 05:30:34;;;;;;;3.78;2.80;;;;;;;20.18;24.91;100381.22;5075664;28;20027;-59
2023/01/25 05:32:59;;;;;;;3.67;2.72;;;;;;;20.20;24.92;100383.63;5077546;28;20039;-59
2023/01/25 05:35:25;;;;;;;3.63;2.80;;;;;;;20.19;24.87;100382.03;5080043;28;20043;-56
2023/01/25 05:37:55;;;;;;;3.75;2.72;;;;;;;20.19;25.00;100380.06;5086177;28;20056;-59
2023/01/25 05:40:21;;;;;;;3.97;2.95;;;;;;;20.19;24.79;100377.28;5089641;28;20641;-56
2023/01/25 05:42:53;;;;;;;3.33;2.58;;;;;;;20.18;25.07;100377.63;5085071;28;20133;-60
2023/01/25 05:45:18;;;;;;;3.95;2.90;;;;;;;20.19;25.05;100379.25;5083991;28;20486;-56
2023/01/25 05:47:44;;;;;;;3.30;2.50;;;;;;;20.19;24.92;100377.28;5083230;28;20020;-56
2023/01/25 05:50:09;;;;;;;3.33;2.72;;;;;;;20.17;24.81;100373.22;5093299;28;20016;-59
2023/01/25 05:52:35;;;;;;;3.60;2.70;;;;;;;20.17;24.92;100371.28;5079450;28;20492;-56
2023/01/25 05:55:00;;;;;;;3.90;3.00;;;;;;;20.17;24.88;100376.81;5088463;28;20489;-59
2023/01/25 05:57:27;;;;;;;3.53;2.50;;;;;;;20.17;25.06;100376.81;5087102;28;20032;-59
2023/01/25 05:59:53;;;;;;;3.83;2.80;;;;;;;20.17;24.86;100378.78;5073180;28;20399;-59
2023/01/25 06:02:18;;;;;;;3.75;2.85;;;;;;;20.17;24.92;100381.56;5083641;28;20020;-59
2023/01/25 06:04:44;;;;;;;3.35;2.45;;;;;;;20.18;24.93;100384.00;5087314;28;20024;-59
2023/01/25 06:07:09;;;;;;;3.35;2.53;;;;;;;20.20;25.06;100380.88;5075191;28;20081;-56
2023/01/25 06:09:35;;;;;;;3.60;2.70;;;;;;;20.24;24.86;100379.03;5091114;28;20023;-56
2023/01/25 06:12:02;;;;;;;3.63;2.55;;;;;;;20.30;24.87;100378.44;5086816;28;20032;-56
2023/01/25 06:14:28;;;;;;;3.10;2.47;;;;;;;20.34;24.84;100375.78;5081790;28;20214;-59
2023/01/25 06:16:53;;;;;;;3.63;2.58;;;;;;;20.37;24.96;100383.41;5079598;28;20035;-56
2023/01/25 06:19:19;;;;;;;3.88;2.70;;;;;;;20.37;25.02;100379.84;5079995;28;20024;-59
2023/01/25 06:21:44;;;;;;;3.33;2.45;;;;;;;20.35;24.74;100367.06;5090766;28;20471;-56
2023/01/25 06:24:10;;;;;;;3.63;2.85;;;;;;;20.38;24.83;100379.47;5096709;28;20027;-59
2023/01/25 06:26:35;;;;;;;4.05;3.00;;;;;;;20.40;24.76;100379.13;5084895;28;20391;-60
2023/01/25 06:29:03;;;;;;;3.35;2.45;;;;;;;20.40;24.81;100370.78;5078652;28;20400;-59
2023/01/25 06:31:28;;;;;;;3.85;2.75;;;;;;;20.40;24.74;100373.56;5090970;28;20027;-60
2023/01/25 06:33:54;;;;;;;3.95;2.80;;;;;;;20.40;24.90;100362.47;5086445;28;20025;-56
2023/01/25 06:36:21;;;;;;;3.40;2.60;;;;;;;20.41;24.68;100364.06;5086275;28;20095;-56
2023/01/25 06:38:48;;;;;;;3.25;2.58;;;;;;;20.42;25.06;100365.69;5086768;28;20202;-59
2023/01/25 06:41:14;;;;;;;4.03;2.85;;;;;;;20.43;24.66;100367.31;5081597;28;20027;-56
2023/01/25 06:43:39;;;;;;;4.28;2.88;;;;;;;20.42;24.78;100362.91;5076553;28;20032;-56
2023/01/25 06:46:08;;;;;;;3.50;2.47;;;;;;;20.44;24.75;100369.78;5101630;28;20019;-56
2023/01/25 06:48:34;;;;;;;3.40;2.42;;;;;;;20.46;24.81;100377.75;5075708;28;20056;-59
2023/01/25 06:51:03;;;;;;;4.15;3.00;;;;;;;20.46;24.77;100363.88;5088653;28;20047;-60
2023/01/25 06:53:31;;;;;;;3.55;2.70;;;;;;;20.46;24.80;100366.66;5072403;28;20481;-59
2023/01/25 06:56:06;;;;;;;4.07;3.00;;;;;;;20.47;24.59;100365.50;5090056;28;20016;-59
2023/01/25 06:58:32;;;;;;;3.33;2.47;;;;;;;20.46;24.60;100364.69;5082741;28;20078;-59
2023/01/25 07:01:01;;;;;;;3.30;2.67;;;;;;;20.44;24.73;100358.66;5084902;28;20031;-59
2023/01/25 07:03:28;;;;;;;3.58;2.67;;;;;;;20.47;24.85;100360.75;5090408;28;20043;-56
2023/01/25 07:05:59;;;;;;;3.42;2.65;;;;;;;20.43;24.56;100353.41;5089725;28;20190;-59
2023/01/25 07:08:25;;;;;;;3.20;2.40;;;;;;;20.44;24.67;100347.56;5086448;28;20036;-59
2023/01/25 07:10:57;;;;;;;4.13;2.83;;;;;;;20.45;24.55;100359.47;5092961;28;20051;-59
2023/01/25 07:13:24;;;;;;;3.22;2.40;;;;;;;20.47;24.59;100357.97;5082649;28;20519;-56
2023/01/25 07:15:59;;;;;;;3.10;2.40;;;;;;;20.48;24.80;100361.53;5084203;28;20111;-56
2023/01/25 07:18:26;;;;;;;3.67;2.78;;;;;;;20.52;24.68;100360.50;5090379;28;20040;-57
2023/01/25 07:20:52;;;;;;;4.00;2.72;;;;;;;20.56;24.76;100363.38;5090452;28;20032;-56
2023/01/25 07:23:19;;;;;;;3.50;2.75;;;;;;;20.59;24.74;100365.47;5089957;28;20107;-59
2023/01/25 07:25:47;;;;;;;3.78;2.70;;;;;;;20.59;24.41;100365.47;5090286;28;20020;-59
2023/01/25 07:28:14;;;;;;;3.75;2.60;;;;;;;20.59;24.64;100362.69;5082137;28;20096;-56
2023/01/25 07:30:40;;;;;;;3.20;2.50;;;;;;;20.58;24.56;100359.13;5090564;28;20140;-56
2023/01/25 07:33:06;;;;;;;3.58;2.80;;;;;;;20.58;24.62;100361.88;5076698;28;20020;-59
2023/01/25 07:35:31;;;;;;;3.45;2.60;;;;;;;20.59;24.62;100359.91;5089879;28;20034;-59
2023/01/25 07:37:57;;;;;;;3.70;2.55;;;;;;;20.58;24.72;100356.34;5089773;28;20411;-56
2023/01/25 07:40:24;;;;;;;3.97;2.65;;;;;;;20.58;24.63;100355.53;5088102;28;20048;-56
2023/01/25 07:42:51;;;;;;;3.90;2.90;;;;;;;20.56;24.76;100355.03;5062776;28;20028;-59
2023/01/25 07:45:17;;;;;;;4.22;2.75;;;;;;;20.55;24.98;100347.88;5089793;28;20028;-59
2023/01/25 07:47:43;;;;;;;3.78;2.83;;;;;;;20.56;25.04;100357.81;5082899;28;20034;-60
2023/01/25 07:50:09;;;;;;;6.72;3.17;;;;;;;20.54;25.85;100351.81;5085156;28;20035;-56
2023/01/25 07:52:34;;;;;;;5.00;2.65;;;;;;;20.56;25.32;100349.47;5086090;28;20039;-62
2023/01/25 07:55:00;;;;;;;5.85;3.00;;;;;;;20.54;25.47;100349.84;5095696;28;20019;-59
2023/01/25 07:57:27;;;;;;;3.85;2.80;;;;;;;20.55;25.53;100359.00;5083442;28;20036;-57
2023/01/25 07:59:53;;;;;;;3.35;2.65;;;;;;;20.54;25.35;100357.38;5084790;28;20036;-60
2023/01/25 08:02:19;;;;;;;4.10;3.00;;;;;;;20.54;25.62;100349.03;5081738;28;20031;-57
2023/01/25 08:04:45;;;;;;;4.05;2.90;;;;;;;20.51;25.37;100338.63;5080462;28;20084;-60
2023/01/25 08:07:10;;;;;;;4.45;3.30;;;;;;;20.52;25.75;100354.16;5081893;28;20119;-58
2023/01/25 08:09:36;;;;;;;11.57;4.00;;;;;;;20.52;26.34;100348.59;5070849;28;20039;-58
2023/01/25 08:12:02;;;;;;;12.15;3.95;;;;;;;20.54;26.84;100347.06;5080531;28;20089;-57
2023/01/25 08:14:27;;;;;;;9.18;4.00;;;;;;;20.56;27.40;100338.38;5080474;28;20032;-57
2023/01/25 08:16:53;;;;;;;10.52;3.80;;;;;;;20.62;27.32;100345.31;5076914;28;20054;-57
2023/01/25 08:19:20;;;;;;;7.85;3.50;;;;;;;20.63;27.73;100343.34;5082247;28;20063;-57
2023/01/25 08:21:46;;;;;;;8.32;3.70;;;;;;;20.65;27.73;100341.84;5081073;28;20024;-57
2023/01/25 08:24:12;;;;;;;5.88;3.40;;;;;;;20.68;27.61;100335.56;5080689;28;20047;-55
2023/01/25 08:26:37;;;;;;;6.68;3.60;;;;;;;20.69;28.01;100341.94;5081831;28;20069;-56
2023/01/25 08:29:04;;;;;;;4.57;3.28;;;;;;;20.71;28.01;100343.19;5080657;28;20032;-55
2023/01/25 08:31:32;;;;;;;5.93;3.30;;;;;;;20.71;28.08;100343.19;5084210;28;20040;-55
2023/01/25 08:33:59;;;;;;;5.70;3.42;;;;;;;20.73;28.21;100349.22;5061228;28;20039;-55
2023/01/25 08:36:27;;;;;;;4.85;3.30;;;;;;;20.75;28.17;100346.09;5078957;28;20028;-55
2023/01/25 08:38:56;;;;;;;10.07;3.60;;;;;;;20.75;28.13;100340.53;5079424;28;20554;-57
2023/01/25 08:41:22;;;;;;;3.92;2.97;;;;;;;20.75;27.98;100346.91;5085855;28;20047;-53
2023/01/25 08:43:47;;;;;;;4.50;3.10;;;;;;;20.72;28.02;100330.13;5086057;28;20024;-51
2023/01/25 08:46:15;;;;;;;5.60;3.33;;;;;;;20.78;27.85;100337.84;5074982;28;20039;-51
2023/01/25 08:48:41;;;;;;;4.22;3.08;;;;;;;20.80;28.10;100326.41;5076836;28;20058;-56
2023/01/25 08:51:10;;;;;;;8.70;3.42;;;;;;;20.84;28.19;100319.75;5086182;28;20078;-45
2023/01/25 08:53:35;;;;;;;4.20;3.22;;;;;;;20.94;28.19;100337.94;5085536;28;20035;-56
2023/01/25 08:56:03;;;;;;;5.85;3.30;;;;;;;21.00;27.92;100319.00;5084376;28;20036;-49
2023/01/25 08:58:30;;;;;;;4.32;3.10;;;;;;;21.05;28.17;100315.97;5084022;28;20032;-51
2023/01/25 09:01:02;;;;;;;4.85;3.40;;;;;;;21.02;28.04;100311.94;5085669;28;20106;-55
2023/01/25 09:03:27;;;;;;;6.03;3.30;;;;;;;20.99;28.56;100306.25;5083781;28;20839;-52
2023/01/25 09:05:53;;;;;;;4.40;3.10;;;;;;;21.02;28.59;100314.72;5083867;28;20044;-54
2023/01/25 09:08:19;;;;;;;6.18;3.05;;;;;;;21.01;28.31;100315.09;5078629;28;20059;-55
2023/01/25 09:10:44;;;;;;;4.40;2.67;;;;;;;20.98;28.34;100308.22;5085452;28;20118;-55
2023/01/25 09:13:10;;;;;;;4.50;3.15;;;;;;;21.02;28.49;100313.91;5080810;28;20028;-55
2023/01/25 09:15:36;;;;;;;5.28;3.22;;;;;;;21.02;28.34;100302.78;5083314;28;20051;-55
2023/01/25 09:18:02;;;;;;;6.00;3.30;;;;;;;21.04;28.32;100303.22;5086244;28;20027;-55
2023/01/25 09:20:28;;;;;;;5.03;3.15;;;;;;;21.03;28.37;100302.44;5084400;28;20036;-56
2023/01/25 09:22:54;;;;;;;5.25;3.08;;;;;;;21.06;28.58;100306.47;5080153;28;20115;-59
2023/01/25 09:25:20;;;;;;;4.35;3.38;;;;;;;21.07;28.69;100308.06;5087239;28;20024;-57
2023/01/25 09:27:50;;;;;;;5.03;3.60;;;;;;;21.07;28.65;100308.06;5079936;28;20150;-53
2023/01/25 09:30:16;;;;;;;4.78;3.50;;;;;;;21.09;28.86;100308.53;5083550;28;20024;-55
2023/01/25 09:32:41;;;;;;;4.40;3.30;;;;;;;21.09;28.71;100302.97;5083625;28;20033;-59
2023/01/25 09:35:07;;;;;;;6.57;3.30;;;;;;;21.10;28.85;100310.16;5085619;28;20042;-58
2023/01/25 09:37:32;;;;;;;4.07;2.97;;;;;;;21.11;28.76;100311.78;5082166;28;20020;-58
2023/01/25 09:39:59;;;;;;;4.80;3.10;;;;;;;21.11;28.42;100318.16;5091579;28;20036;-58
2023/01/25 09:42:49;;;;;;;4.78;3.55;;;;;;;21.12;28.71;100311.41;5068088;28;20028;-56
2023/01/25 09:45:37;;;;;;;5.05;3.30;;;;;;;21.14;28.46;100314.63;5079956;28;20051;-53
2023/01/25 09:48:36;;;;;;;3.65;2.90;;;;;;;21.14;28.43;100320.22;5085633;28;20035;-54
2023/01/25 09:51:28;;;;;;;5.35;3.15;;;;;;;21.17;28.47;100321.50;5079870;28;20093;-54
2023/01/25 09:53:56;;;;;;;4.53;2.90;;;;;;;21.17;28.42;100315.91;5082784;28;20480;-54
2023/01/25 09:56:26;;;;;;;4.47;3.50;;;;;;;21.17;28.26;100321.50;5074935;28;20036;-57
2023/01/25 09:58:58;;;;;;;5.40;3.60;;;;;;;21.16;28.07;100322.66;5080558;28;20082;-55
2023/01/25 10:01:49;;;;;;;5.25;3.67;;;;;;;21.14;28.33;100324.97;5076776;28;20101;-56
2023/01/25 10:04:23;;;;;;;4.95;3.80;;;;;;;21.13;28.08;100323.34;5068130;28;20035;-54
2023/01/25 10:06:52;;;;;;;5.13;3.72;;;;;;;21.13;28.23;100320.56;5079554;28;20032;-56
2023/01/25 10:09:41;;;;;;;5.95;4.03;;;;;;;21.14;28.18;100317.41;5090246;28;20078;-56
2023/01/25 10:12:20;;;;;;;6.68;3.63;;;;;;;21.16;28.25;100325.44;5089568;28;20040;-57
2023/01/25 10:14:46;;;;;;;4.53;3.38;;;;;;;21.15;28.18;100327.41;5075618;28;20044;-59
2023/01/25 10:17:23;;;;;;;4.90;3.55;;;;;;;21.16;28.01;100320.69;5078031;28;20028;-55
2023/01/25 10:20:11;;;;;;;4.85;3.50;;;;;;;21.14;28.17;100325.78;5089681;28;20081;-55
2023/01/25 10:22:45;;;;;;;5.63;3.38;;;;;;;21.16;28.09;100322.66;5068630;28;20036;-56
2023/01/25 10:25:29;;;;;;;4.60;3.28;;;;;;;21.14;28.06;100320.22;5088502;28;20023;-56
2023/01/25 10:28:11;;;;;;;7.63;3.22;;;;;;;21.14;28.05;100319.41;5081061;28;20038;-55
2023/01/25 10:31:02;;;;;;;5.22;3.10;;;;;;;21.12;28.12;100311.41;5093476;28;20040;-55
2023/01/25 10:33:31;;;;;;;4.50;3.35;;;;;;;21.15;28.14;100309.91;5066152;28;20442;-56
2023/01/25 10:36:00;;;;;;;7.95;3.28;;;;;;;21.17;28.18;100313.13;5082849;28;20115;-55
2023/01/25 10:38:33;;;;;;;5.90;3.40;;;;;;;21.18;27.90;100303.63;5077706;28;20530;-55
2023/01/25 10:41:21;;;;;;;4.78;3.20;;;;;;;21.18;27.91;100298.06;5083164;28;20524;-57
2023/01/25 10:44:20;;;;;;;6.25;3.20;;;;;;;21.20;27.73;100295.72;5075517;28;20328;-57
2023/01/25 10:46:33;;;;;;;5.18;3.17;;;;;;;21.21;27.81;100288.19;5064049;28;20033;-57
2023/01/25 10:49:12;;;;;;;4.57;2.92;;;;;;;21.20;28.04;100294.91;5087480;28;20121;-56
2023/01/25 10:51:38;;;;;;;7.00;3.20;;;;;;;21.21;28.07;100277.06;5087999;28;20024;-61
2023/01/25 10:54:05;;;;;;;6.97;3.10;;;;;;;21.19;27.70;100277.41;5087441;28;20035;-58
2023/01/25 10:56:38;;;;;;;4.38;3.35;;;;;;;21.20;27.94;100279.03;5071820;28;20378;-60
2023/01/25 10:59:23;;;;;;;6.88;3.25;;;;;;;21.20;27.80;100262.34;5082805;28;20032;-56
2023/01/25 11:01:49;;;;;;;6.55;3.05;;;;;;;21.21;27.59;100269.50;5089672;28;20464;-56
2023/01/25 11:04:33;;;;;;;4.00;2.60;;;;;;;21.21;27.78;100274.28;5082605;28;20028;-56
2023/01/25 11:07:01;;;;;;;6.13;3.22;;;;;;;21.22;27.52;100254.47;5082799;28;20040;-56
2023/01/25 11:09:32;;;;;;;5.40;4.18;;;;;;;21.19;27.44;100248.78;5076239;28;20059;-56
2023/01/25 11:12:14;;;;;;;5.30;3.22;;;;;;;21.15;27.37;100245.94;5080278;28;20407;-56
2023/01/25 11:14:39;;;;;;;4.43;3.05;;;;;;;21.10;27.28;100251.75;5082134;28;20046;-60
2023/01/25 11:17:18;;;;;;;7.43;3.55;;;;;;;21.07;26.81;100232.97;5075965;28;20028;-55
2023/01/25 11:19:43;;;;;;;8.77;3.13;;;;;;;21.03;26.87;100234.88;5082168;28;20118;-60
2023/01/25 11:22:24;;;;;;;4.85;3.20;;;;;;;20.99;26.99;100229.19;5065275;28;20440;-56
2023/01/25 11:24:50;;;;;;;5.43;2.78;;;;;;;20.99;26.47;100234.75;5081381;28;20024;-60
2023/01/25 11:27:23;;;;;;;5.05;3.10;;;;;;;20.98;26.44;100230.34;5088497;28;20036;-65
2023/01/25 11:30:09;;;;;;;4.07;2.70;;;;;;;21.00;26.32;100216.91;5081461;28;20131;-56
2023/01/25 11:32:38;;;;;;;3.85;2.80;;;;;;;21.00;26.44;100210.53;5082613;28;20024;-62
2023/01/25 11:35:11;;;;;;;5.90;2.70;;;;;;;20.99;26.56;100200.56;5079658;28;20039;-55